Time;durP1;ratioP1;P1;durP2;ratioP2;P2;SDS_P1;SDS_P2;PMS_P1;PMS_P2;Temp;Humidity;BMP_temperature;BMP_pressure;BME280_temperature;BME280_humidity;BME280_pressure;Samples;Min_cycle;Max_cycle;Signal;HPM_P1;HPM_P2
2021/11/16 00:00:58;;;;;;;101.07;40.85;;;;;;;3.90;100.00;96195.03;1031830;28;20054;-62
2021/11/16 00:01:30;;;;;;;100.82;40.60;;;;;;;3.89;100.00;96196.84;1035215;28;20273;-63
2021/11/16 00:02:01;;;;;;;99.28;39.53;;;;;;;3.90;100.00;96195.03;1040541;28;20037;-64
2021/11/16 00:02:31;;;;;;;97.72;40.78;;;;;;;3.72;100.00;96190.50;1043304;28;20646;-64
2021/11/16 00:03:02;;;;;;;109.20;42.58;;;;;;;3.80;100.00;96195.47;1035539;28;20041;-64
2021/11/16 00:03:32;;;;;;;101.97;41.22;;;;;;;3.85;100.00;96200.81;1034518;28;20029;-61
2021/11/16 00:04:03;;;;;;;102.13;42.45;;;;;;;3.81;100.00;96199.66;1030745;28;20026;-63
2021/11/16 00:04:34;;;;;;;99.47;40.80;;;;;;;3.78;100.00;96198.25;1031607;28;20477;-64
2021/11/16 00:05:05;;;;;;;96.75;39.58;;;;;;;3.82;100.00;96190.84;1031195;28;20435;-65
2021/11/16 00:05:35;;;;;;;93.00;39.17;;;;;;;3.85;100.00;96198.22;1029527;28;20023;-64
2021/11/16 00:06:06;;;;;;;87.55;37.70;;;;;;;3.76;100.00;96186.53;1027094;28;20034;-64
2021/11/16 00:06:37;;;;;;;91.70;38.58;;;;;;;3.82;100.00;96200.44;1025640;28;20043;-63
2021/11/16 00:07:09;;;;;;;99.80;40.25;;;;;;;3.77;100.00;96193.28;1027168;28;20098;-64
2021/11/16 00:07:39;;;;;;;96.03;39.65;;;;;;;3.75;100.00;96190.09;1024681;28;20055;-64
2021/11/16 00:08:10;;;;;;;107.55;41.85;;;;;;;3.80;100.00;96198.06;1023270;29;20329;-64
2021/11/16 00:08:40;;;;;;;97.90;41.17;;;;;;;3.83;100.00;96197.66;1027423;28;20112;-64
2021/11/16 00:09:10;;;;;;;97.60;40.40;;;;;;;3.85;100.00;96206.00;1028366;28;20370;-63
2021/11/16 00:09:42;;;;;;;94.97;39.17;;;;;;;3.83;100.00;96194.28;1029639;28;20018;-63
2021/11/16 00:10:13;;;;;;;99.45;40.30;;;;;;;3.86;100.00;96199.84;1027536;28;20070;-64
2021/11/16 00:10:43;;;;;;;104.28;41.58;;;;;;;3.85;100.00;96203.41;1023533;28;20275;-64
2021/11/16 00:11:14;;;;;;;105.07;42.17;;;;;;;3.86;100.00;96210.22;1023212;28;20019;-63
2021/11/16 00:11:44;;;;;;;99.95;40.20;;;;;;;3.87;100.00;96203.22;1023004;28;20031;-63
2021/11/16 00:12:14;;;;;;;104.35;42.45;;;;;;;3.85;100.00;96205.22;1030783;28;20021;-64
2021/11/16 00:12:45;;;;;;;113.28;42.15;;;;;;;3.82;100.00;96203.03;1032823;28;20037;-64
2021/11/16 00:13:15;;;;;;;109.25;42.60;;;;;;;3.77;100.00;96204.47;1035745;28;20014;-63
2021/11/16 00:13:48;;;;;;;108.47;42.22;;;;;;;3.76;100.00;96197.69;1031017;28;20023;-64
2021/11/16 00:14:19;;;;;;;108.88;43.40;;;;;;;3.79;100.00;96204.28;1025923;28;20023;-64
2021/11/16 00:14:49;;;;;;;109.47;42.10;;;;;;;3.75;100.00;96190.09;1027181;28;20274;-64
2021/11/16 00:15:20;;;;;;;102.57;42.00;;;;;;;3.78;100.00;96197.47;1023625;28;20008;-63
2021/11/16 00:15:51;;;;;;;115.28;44.28;;;;;;;3.78;100.00;96194.88;1018854;29;20468;-63
2021/11/16 00:16:21;;;;;;;116.70;45.17;;;;;;;3.77;100.00;96194.09;1027026;28;20034;-61
2021/11/16 00:16:52;;;;;;;117.65;43.33;;;;;;;3.77;100.00;96199.28;1026404;28;20023;-63
2021/11/16 00:17:22;;;;;;;117.53;43.42;;;;;;;3.76;100.00;96187.31;1027407;28;20019;-64
2021/11/16 00:17:53;;;;;;;109.28;43.92;;;;;;;3.76;100.00;96181.34;1038580;28;20075;-64
2021/11/16 00:18:27;;;;;;;121.35;44.28;;;;;;;3.79;100.00;96196.50;1035355;28;20161;-64
2021/11/16 00:19:02;;;;;;;110.80;44.70;;;;;;;3.77;100.00;96193.28;1035383;28;20033;-63
2021/11/16 00:19:33;;;;;;;124.53;45.95;;;;;;;3.76;100.00;96195.09;1033724;28;20284;-64
2021/11/16 00:20:05;;;;;;;129.38;48.60;;;;;;;3.78;100.00;96200.84;1032488;28;20272;-64
2021/11/16 00:20:43;;;;;;;131.60;47.63;;;;;;;3.77;100.00;96193.28;1026980;28;20478;-63
2021/11/16 00:21:18;;;;;;;136.38;46.92;;;;;;;3.79;100.00;96196.50;1020944;28;20274;-64
2021/11/16 00:21:49;;;;;;;131.52;48.33;;;;;;;3.80;100.00;96203.25;1020679;29;20278;-62
2021/11/16 00:22:20;;;;;;;122.22;45.30;;;;;;;3.81;100.00;96198.88;1026686;28;20263;-63
2021/11/16 00:22:50;;;;;;;138.57;49.10;;;;;;;3.86;100.00;96199.84;1035214;28;20265;-64
2021/11/16 00:23:22;;;;;;;129.10;46.85;;;;;;;3.87;100.00;96203.22;1039600;28;20029;-64
2021/11/16 00:23:56;;;;;;;119.95;45.10;;;;;;;3.86;100.00;96202.44;1039732;28;20032;-63
2021/11/16 00:24:38;;;;;;;129.43;45.53;;;;;;;3.88;100.00;96199.63;1030837;28;20274;-64
2021/11/16 00:25:20;;;;;;;124.63;46.50;;;;;;;3.80;100.00;96192.09;1031324;28;20719;-64
2021/11/16 00:25:52;;;;;;;122.97;46.65;;;;;;;3.84;100.00;96204.44;1027167;28;20661;-64
2021/11/16 00:26:23;;;;;;;124.57;47.40;;;;;;;3.78;100.00;96200.06;1030485;28;20278;-64
2021/11/16 00:26:54;;;;;;;129.70;47.45;;;;;;;3.74;100.00;96202.28;1027194;28;20799;-63
2021/11/16 00:27:24;;;;;;;136.10;46.22;;;;;;;3.75;100.00;96201.28;1029123;28;20247;-64
2021/11/16 00:27:55;;;;;;;138.93;49.50;;;;;;;3.78;100.00;96202.66;1027248;28;20090;-63
2021/11/16 00:28:25;;;;;;;133.65;47.25;;;;;;;3.82;100.00;96198.66;1027065;28;20034;-64
2021/11/16 00:28:56;;;;;;;129.52;48.50;;;;;;;3.86;100.00;96204.25;1027216;28;20023;-64
2021/11/16 00:29:26;;;;;;;138.07;47.95;;;;;;;3.85;100.00;96200.81;1018873;29;20024;-62
2021/11/16 00:29:56;;;;;;;149.95;49.92;;;;;;;3.85;100.00;96200.03;1023066;28;20130;-64
2021/11/16 00:30:27;;;;;;;144.65;50.53;;;;;;;3.79;100.00;96206.88;1027035;28;20023;-64
2021/11/16 00:30:57;;;;;;;145.88;48.17;;;;;;;3.79;100.00;96199.09;1023388;28;20034;-64
2021/11/16 00:31:31;;;;;;;153.35;51.33;;;;;;;3.80;100.00;96199.88;1030983;28;20146;-61
2021/11/16 00:32:02;;;;;;;131.85;48.03;;;;;;;3.76;100.00;96196.91;1027295;28;20082;-64
2021/11/16 00:32:33;;;;;;;137.27;47.35;;;;;;;3.74;100.00;96204.09;1027652;28;20301;-63
2021/11/16 00:33:03;;;;;;;132.05;46.47;;;;;;;3.72;100.00;96206.09;1027287;28;20034;-63
2021/11/16 00:33:33;;;;;;;149.30;48.40;;;;;;;3.73;100.00;96202.50;1023477;28;20146;-63
2021/11/16 00:34:04;;;;;;;140.70;49.60;;;;;;;3.82;100.00;96206.44;1023131;29;20035;-63
2021/11/16 00:34:34;;;;;;;154.45;50.65;;;;;;;3.81;100.00;96202.25;1023324;28;20527;-64
2021/11/16 00:35:05;;;;;;;142.85;47.60;;;;;;;3.74;100.00;96199.69;1026937;28;20034;-65
2021/11/16 00:35:39;;;;;;;151.65;50.28;;;;;;;3.76;100.00;96207.28;1027255;28;20019;-64
2021/11/16 00:36:10;;;;;;;142.43;46.85;;;;;;;3.68;100.00;96190.13;1027252;28;20019;-64
2021/11/16 00:36:40;;;;;;;161.63;52.75;;;;;;;3.75;100.00;96210.88;1023687;28;20839;-64
2021/11/16 00:37:11;;;;;;;135.75;48.80;;;;;;;3.76;100.00;96205.47;1023713;28;20394;-64
2021/11/16 00:37:42;;;;;;;147.32;49.00;;;;;;;3.68;100.00;96202.31;1019160;29;20028;-67
2021/11/16 00:38:13;;;;;;;151.32;48.63;;;;;;;3.75;100.00;96211.66;1019196;29;20507;-63
2021/11/16 00:38:44;;;;;;;140.60;49.03;;;;;;;3.74;100.00;96214.47;1022476;28;20266;-64
2021/11/16 00:39:15;;;;;;;152.02;49.28;;;;;;;3.78;100.00;96200.06;1023704;28;20096;-64
2021/11/16 00:39:45;;;;;;;162.73;49.83;;;;;;;3.67;100.00;96191.16;1031122;28;20877;-64
2021/11/16 00:40:18;;;;;;;165.98;50.75;;;;;;;3.76;100.00;96200.28;1026742;28;20638;-64
2021/11/16 00:40:49;;;;;;;153.50;51.70;;;;;;;3.72;100.00;96193.94;1023086;28;20484;-62
2021/11/16 00:41:19;;;;;;;157.90;50.92;;;;;;;3.74;100.00;96202.28;1023002;29;20266;-64
2021/11/16 00:41:50;;;;;;;161.65;51.17;;;;;;;3.84;100.00;96198.44;1018574;29;20032;-62
2021/11/16 00:42:21;;;;;;;139.90;50.72;;;;;;;3.79;100.00;96201.69;1022924;28;20023;-64
2021/11/16 00:42:51;;;;;;;139.93;47.97;;;;;;;3.81;100.00;96201.47;1024137;28;20026;-64
2021/11/16 00:43:22;;;;;;;141.40;47.78;;;;;;;3.72;100.00;96187.91;1025436;28;20015;-64
2021/11/16 00:43:52;;;;;;;152.45;49.53;;;;;;;3.75;100.00;96200.47;1022302;29;20016;-62
2021/11/16 00:44:23;;;;;;;138.07;49.35;;;;;;;3.78;100.00;96202.66;1023974;28;20032;-64
2021/11/16 00:44:54;;;;;;;143.13;51.90;;;;;;;3.78;100.00;96207.84;1027558;28;20498;-64
2021/11/16 00:45:26;;;;;;;139.82;49.92;;;;;;;3.76;100.00;96202.09;1029919;28;20042;-63
2021/11/16 00:45:57;;;;;;;151.65;49.95;;;;;;;3.76;100.00;96199.50;1031365;28;20390;-63
2021/11/16 00:46:27;;;;;;;152.30;49.95;;;;;;;3.71;100.00;96194.13;1029702;28;20281;-63
2021/11/16 00:46:58;;;;;;;145.52;50.55;;;;;;;3.74;100.00;96198.91;1027728;28;20039;-64
2021/11/16 00:47:28;;;;;;;158.57;51.88;;;;;;;3.73;100.00;96192.91;1035648;28;20034;-64
2021/11/16 00:47:59;;;;;;;147.73;52.60;;;;;;;3.81;100.00;96191.88;1035758;28;20069;-64
2021/11/16 00:48:29;;;;;;;141.88;49.10;;;;;;;3.83;100.00;96194.28;1026983;28;20035;-62
2021/11/16 00:49:00;;;;;;;149.45;48.70;;;;;;;3.80;100.00;96190.28;1027475;28;20034;-64
2021/11/16 00:49:30;;;;;;;150.20;48.53;;;;;;;3.78;100.00;96190.47;1027576;28;20031;-64
2021/11/16 00:50:01;;;;;;;154.43;49.92;;;;;;;3.79;100.00;96199.09;1023683;28;20529;-63
2021/11/16 00:50:31;;;;;;;144.63;48.70;;;;;;;3.77;100.00;96188.91;1033194;28;20042;-62
2021/11/16 00:51:03;;;;;;;154.15;50.53;;;;;;;3.73;100.00;96185.13;1027685;28;20085;-62
2021/11/16 00:51:34;;;;;;;165.90;54.55;;;;;;;3.83;100.00;96192.47;1023452;29;20085;-64
2021/11/16 00:52:04;;;;;;;143.90;48.38;;;;;;;3.85;100.00;96195.63;1024974;28;20279;-63
2021/11/16 00:52:35;;;;;;;153.82;49.25;;;;;;;3.81;100.00;96186.69;1028251;28;20738;-64
2021/11/16 00:53:05;;;;;;;141.50;49.13;;;;;;;3.82;100.00;96190.06;1023606;28;20119;-63
2021/11/16 00:53:37;;;;;;;151.27;51.08;;;;;;;3.82;100.00;96190.84;1026848;28;20173;-64
2021/11/16 00:54:07;;;;;;;130.20;48.40;;;;;;;3.82;100.00;96192.66;1027296;28;20027;-64
2021/11/16 00:54:38;;;;;;;155.10;49.03;;;;;;;3.81;100.00;96184.09;1027882;28;20302;-64
2021/11/16 00:55:09;;;;;;;141.50;48.08;;;;;;;3.83;100.00;96189.09;1031602;28;20030;-64
2021/11/16 00:55:39;;;;;;;146.48;48.30;;;;;;;3.81;100.00;96183.28;1034879;28;20030;-63
2021/11/16 00:56:10;;;;;;;131.60;45.90;;;;;;;3.73;100.00;96177.34;1035511;28;20037;-64
2021/11/16 00:56:40;;;;;;;128.88;45.60;;;;;;;3.76;100.00;96189.13;1031907;28;20413;-61
2021/11/16 00:57:11;;;;;;;147.63;47.78;;;;;;;3.73;100.00;96186.94;1035857;28;20066;-64
2021/11/16 00:57:41;;;;;;;149.25;49.28;;;;;;;3.62;100.00;96179.78;1035648;28;20026;-61
2021/11/16 00:58:12;;;;;;;143.00;48.08;;;;;;;3.60;100.00;96174.03;1031750;28;20066;-64
2021/11/16 00:58:43;;;;;;;131.55;46.75;;;;;;;3.64;100.00;96188.16;1027377;28;20035;-62
2021/11/16 00:59:13;;;;;;;132.85;46.33;;;;;;;3.66;100.00;96186.19;1035599;28;20018;-63
2021/11/16 00:59:44;;;;;;;146.65;50.67;;;;;;;3.63;100.00;96182.19;1031550;28;20466;-63
2021/11/16 01:00:15;;;;;;;147.90;48.95;;;;;;;3.62;100.00;96174.59;1031632;28;20034;-63
2021/11/16 01:00:45;;;;;;;154.02;50.60;;;;;;;3.68;100.00;96189.34;1027215;28;20042;-63
2021/11/16 01:01:16;;;;;;;132.32;46.95;;;;;;;3.69;100.00;96188.34;1027471;28;20262;-63
2021/11/16 01:01:46;;;;;;;139.90;48.72;;;;;;;3.70;100.00;96192.53;1030951;28;20023;-63
2021/11/16 01:02:17;;;;;;;152.55;48.88;;;;;;;3.72;100.00;96193.09;1034848;28;20030;-64
2021/11/16 01:02:48;;;;;;;154.85;51.28;;;;;;;3.76;100.00;96192.50;1031483;28;20023;-63
2021/11/16 01:03:19;;;;;;;155.85;49.38;;;;;;;3.75;100.00;96190.88;1031775;28;20211;-64
2021/11/16 01:03:50;;;;;;;143.23;48.00;;;;;;;3.76;100.00;96187.31;1031711;28;20273;-63
2021/11/16 01:04:21;;;;;;;132.60;45.80;;;;;;;3.78;100.00;96189.69;1035773;28;21135;-63
2021/11/16 01:04:52;;;;;;;149.65;51.35;;;;;;;3.80;100.00;96190.28;1035733;28;20025;-64
2021/11/16 01:05:23;;;;;;;136.80;49.03;;;;;;;3.80;100.00;96187.69;1035534;28;20284;-62
2021/11/16 01:05:54;;;;;;;148.18;48.00;;;;;;;3.78;100.00;96190.47;1035178;28;20280;-64
2021/11/16 01:06:24;;;;;;;126.80;45.45;;;;;;;3.80;100.00;96187.69;1031674;28;20165;-63
2021/11/16 01:06:55;;;;;;;144.68;47.95;;;;;;;3.81;100.00;96184.09;1035612;28;20445;-64
2021/11/16 01:07:25;;;;;;;142.93;48.03;;;;;;;3.85;100.00;96187.84;1031324;28;20548;-64
2021/11/16 01:07:56;;;;;;;141.07;49.30;;;;;;;3.80;100.00;96187.69;1031542;28;20067;-64
2021/11/16 01:08:26;;;;;;;143.82;48.85;;;;;;;3.78;100.00;96184.50;1027059;28;20032;-64
2021/11/16 01:08:57;;;;;;;131.35;46.85;;;;;;;3.80;100.00;96179.13;1027443;28;20504;-63
2021/11/16 01:09:28;;;;;;;137.80;48.38;;;;;;;3.44;100.00;96126.81;1031167;28;20511;-63
2021/11/16 01:09:59;;;;;;;150.73;47.53;;;;;;;3.69;100.00;96172.75;1028034;28;20277;-62
2021/11/16 01:10:29;;;;;;;149.05;50.03;;;;;;;3.78;100.00;96189.69;1027150;28;20033;-63
2021/11/16 01:11:00;;;;;;;147.73;48.45;;;;;;;3.83;100.00;96186.47;1027109;28;20273;-64
2021/11/16 01:11:30;;;;;;;140.70;47.88;;;;;;;3.79;100.00;96186.09;1023845;28;20070;-63
2021/11/16 01:12:01;;;;;;;141.48;48.00;;;;;;;3.79;100.00;96193.91;1025939;28;20101;-63
2021/11/16 01:12:31;;;;;;;149.43;49.83;;;;;;;3.77;100.00;96183.72;1035237;28;20508;-64
2021/11/16 01:13:02;;;;;;;133.15;47.08;;;;;;;3.76;100.00;96189.13;1031422;28;20094;-62
2021/11/16 01:13:34;;;;;;;144.40;49.65;;;;;;;3.76;100.00;96195.09;1027546;28;20130;-63
2021/11/16 01:14:05;;;;;;;138.20;47.50;;;;;;;3.80;100.00;96195.47;1023120;28;20087;-64
2021/11/16 01:14:35;;;;;;;149.23;49.53;;;;;;;3.82;100.00;96190.06;1019451;29;20789;-63
2021/11/16 01:15:06;;;;;;;146.15;48.25;;;;;;;3.80;100.00;96195.47;1023683;28;20612;-63
2021/11/16 01:15:38;;;;;;;141.23;48.38;;;;;;;3.80;100.00;96190.28;1023425;28;20035;-63
2021/11/16 01:16:10;;;;;;;124.13;46.30;;;;;;;3.80;100.00;96189.50;1023459;28;20283;-64
2021/11/16 01:16:41;;;;;;;141.88;48.70;;;;;;;3.77;100.00;96188.09;1023247;28;20290;-64
2021/11/16 01:17:12;;;;;;;131.60;47.58;;;;;;;3.76;100.00;96189.13;1024042;28;20302;-63
2021/11/16 01:17:42;;;;;;;142.20;47.92;;;;;;;3.80;100.00;96182.50;1023144;28;20334;-62
2021/11/16 01:18:13;;;;;;;143.48;50.17;;;;;;;3.80;100.00;96186.91;1025496;28;20913;-63
2021/11/16 01:18:43;;;;;;;134.55;49.50;;;;;;;3.78;100.00;96184.50;1027145;28;20027;-63
2021/11/16 01:19:14;;;;;;;121.68;44.83;;;;;;;3.74;100.00;96176.34;1027482;28;20090;-64
2021/11/16 01:19:46;;;;;;;147.50;48.95;;;;;;;3.81;100.00;96183.28;1027189;28;20027;-63
2021/11/16 01:20:17;;;;;;;132.55;46.78;;;;;;;3.80;100.00;96179.91;1027477;28;20027;-64
2021/11/16 01:20:47;;;;;;;133.27;46.08;;;;;;;3.82;100.00;96183.06;1031242;28;20675;-63
2021/11/16 01:21:18;;;;;;;134.88;47.58;;;;;;;3.81;100.00;96178.09;1027872;28;20310;-63
2021/11/16 01:21:48;;;;;;;126.05;46.33;;;;;;;3.81;100.00;96173.69;1026739;28;20420;-62
2021/11/16 01:22:19;;;;;;;136.98;45.83;;;;;;;3.81;100.00;96178.88;1027288;28;20754;-64
2021/11/16 01:22:52;;;;;;;147.32;48.25;;;;;;;3.80;100.00;96179.91;1027288;28;20031;-63
2021/11/16 01:23:23;;;;;;;141.50;47.30;;;;;;;3.80;100.00;96182.50;1028242;28;20410;-63
2021/11/16 01:23:53;;;;;;;147.48;49.17;;;;;;;3.80;100.00;96177.31;1031696;28;20370;-63
2021/11/16 01:24:24;;;;;;;131.85;45.70;;;;;;;3.82;100.00;96180.47;1031330;28;20015;-62
2021/11/16 01:24:54;;;;;;;134.85;46.75;;;;;;;3.85;100.00;96179.25;1031593;28;20117;-63
2021/11/16 01:25:26;;;;;;;143.20;47.47;;;;;;;3.82;100.00;96185.66;1031246;28;20026;-63
2021/11/16 01:25:58;;;;;;;127.28;46.00;;;;;;;3.76;100.00;96189.13;1035671;28;20033;-64
2021/11/16 01:26:28;;;;;;;148.45;48.65;;;;;;;3.75;100.00;96184.91;1035526;28;20330;-64
2021/11/16 01:26:59;;;;;;;129.10;45.83;;;;;;;3.73;100.00;96179.94;1035248;28;20683;-64
2021/11/16 01:27:34;;;;;;;140.88;48.17;;;;;;;3.77;100.00;96181.09;1035521;28;20030;-64
2021/11/16 01:28:08;;;;;;;116.63;43.35;;;;;;;3.78;100.00;96189.69;1035438;28;20036;-63
2021/11/16 01:28:39;;;;;;;127.50;43.47;;;;;;;3.67;100.00;96172.19;1028430;28;20277;-64
2021/11/16 01:29:10;;;;;;;138.45;45.45;;;;;;;3.75;100.00;96190.09;1030962;28;20348;-64
2021/11/16 01:29:41;;;;;;;118.10;44.53;;;;;;;3.77;100.00;96185.50;1027212;28;20018;-64
2021/11/16 01:30:15;;;;;;;133.13;45.67;;;;;;;3.77;100.00;96186.31;1024254;28;20031;-63
2021/11/16 01:30:47;;;;;;;130.27;45.72;;;;;;;3.77;100.00;96183.72;1030597;28;20312;-64
2021/11/16 01:31:18;;;;;;;123.72;45.58;;;;;;;3.77;100.00;96182.91;1024400;28;20361;-63
2021/11/16 01:31:51;;;;;;;128.98;46.40;;;;;;;3.75;100.00;96180.50;1030241;28;20780;-61
2021/11/16 01:32:43;;;;;;;130.13;45.58;;;;;;;3.74;100.00;96178.94;1035306;28;20117;-61
2021/11/16 01:33:18;;;;;;;141.73;46.53;;;;;;;3.75;100.00;96184.91;1031291;28;20679;-64
2021/11/16 01:34:00;;;;;;;126.43;44.63;;;;;;;3.73;100.00;96177.34;1027380;28;20265;-64
2021/11/16 01:34:32;;;;;;;147.15;45.60;;;;;;;3.75;100.00;96179.72;1027549;28;20301;-64
2021/11/16 01:35:04;;;;;;;142.40;47.13;;;;;;;3.76;100.00;96181.34;1033340;28;20282;-62
2021/11/16 01:35:35;;;;;;;130.27;46.10;;;;;;;3.73;100.00;96181.75;1033948;28;20327;-64
2021/11/16 01:36:07;;;;;;;163.25;49.33;;;;;;;3.73;100.00;96185.13;1027543;28;20306;-63
2021/11/16 01:36:38;;;;;;;141.80;45.75;;;;;;;3.75;100.00;96183.09;1022302;29;20330;-64
2021/11/16 01:37:08;;;;;;;150.65;49.97;;;;;;;3.78;100.00;96179.31;1019831;29;20889;-64
2021/11/16 01:37:39;;;;;;;145.85;49.03;;;;;;;3.76;100.00;96179.53;1025064;28;20034;-63
2021/11/16 01:38:10;;;;;;;136.85;47.28;;;;;;;3.78;100.00;96180.09;1023352;29;20031;-64
2021/11/16 01:38:41;;;;;;;133.32;46.78;;;;;;;3.77;100.00;96191.50;1026574;28;20038;-63
2021/11/16 01:39:12;;;;;;;155.38;48.67;;;;;;;3.71;100.00;96189.72;1027375;28;20262;-64
2021/11/16 01:39:42;;;;;;;128.10;45.90;;;;;;;3.74;100.00;96184.13;1025436;28;20270;-61
2021/11/16 01:40:15;;;;;;;155.40;49.25;;;;;;;3.78;100.00;96184.50;1027355;28;20033;-64
2021/11/16 01:40:47;;;;;;;153.05;49.92;;;;;;;3.78;100.00;96189.69;1027913;28;20042;-64
2021/11/16 01:41:18;;;;;;;146.10;47.92;;;;;;;3.75;100.00;96187.50;1023698;29;20829;-67
2021/11/16 01:41:48;;;;;;;164.77;52.00;;;;;;;3.77;100.00;96185.50;1020876;28;20272;-63
2021/11/16 01:42:20;;;;;;;160.30;49.13;;;;;;;3.74;100.00;96188.50;1023783;29;20277;-63
2021/11/16 01:42:50;;;;;;;171.68;50.70;;;;;;;3.73;100.00;96198.09;1026093;28;20043;-64
2021/11/16 01:43:21;;;;;;;150.43;47.63;;;;;;;3.73;100.00;96194.72;1031375;28;20309;-64
2021/11/16 01:43:51;;;;;;;153.10;48.47;;;;;;;3.74;100.00;96186.72;1030608;28;20030;-64
2021/11/16 01:44:22;;;;;;;158.68;49.38;;;;;;;3.77;100.00;96188.09;1026525;29;20488;-61
2021/11/16 01:44:52;;;;;;;148.55;47.58;;;;;;;3.78;100.00;96192.28;1024007;28;20623;-64
2021/11/16 01:45:23;;;;;;;164.20;48.70;;;;;;;3.74;100.00;96189.31;1027276;28;20035;-62
2021/11/16 01:45:53;;;;;;;177.90;50.33;;;;;;;3.76;100.00;96196.91;1028431;28;20085;-65
2021/11/16 01:46:24;;;;;;;190.40;48.78;;;;;;;3.69;100.00;96190.94;1029529;28;20030;-64
2021/11/16 01:46:54;;;;;;;189.40;52.17;;;;;;;3.66;100.00;96192.16;1028884;28;20030;-62
2021/11/16 01:47:26;;;;;;;217.55;54.05;;;;;;;3.61;100.00;96204.16;1022060;28;20097;-62
2021/11/16 01:47:56;;;;;;;189.98;54.33;;;;;;;3.58;100.00;96194.19;1027505;28;20026;-64
2021/11/16 01:48:27;;;;;;;219.80;57.80;;;;;;;3.50;100.00;96183.03;1031143;28;20273;-63
2021/11/16 01:48:57;;;;;;;200.38;53.03;;;;;;;3.52;100.00;96194.03;1027010;28;20527;-63
2021/11/16 01:49:28;;;;;;;187.02;51.85;;;;;;;3.52;100.00;96195.78;1031116;28;20484;-64
2021/11/16 01:49:58;;;;;;;188.65;51.25;;;;;;;3.49;100.00;96199.63;1031199;28;20026;-64
2021/11/16 01:50:29;;;;;;;169.32;48.65;;;;;;;3.45;100.00;96200.22;1030474;28;20137;-64
2021/11/16 01:50:59;;;;;;;149.38;46.05;;;;;;;3.44;100.00;96198.63;1027421;28;20473;-62
2021/11/16 01:51:30;;;;;;;176.50;49.15;;;;;;;3.43;100.00;96192.66;1034606;28;20026;-63
2021/11/16 01:52:00;;;;;;;172.88;49.25;;;;;;;3.36;100.00;96183.31;1029131;28;20089;-63
2021/11/16 01:52:31;;;;;;;171.43;49.58;;;;;;;3.44;100.00;96201.22;1027221;28;20673;-62
2021/11/16 01:53:01;;;;;;;165.45;49.30;;;;;;;3.46;100.00;96197.44;1030947;28;20092;-61
2021/11/16 01:53:32;;;;;;;161.75;47.13;;;;;;;3.49;100.00;96206.63;1030807;28;20034;-63
2021/11/16 01:54:03;;;;;;;152.05;47.80;;;;;;;3.42;100.00;96191.06;1030307;28;20057;-62
2021/11/16 01:54:34;;;;;;;149.32;46.20;;;;;;;3.46;100.00;96199.25;1027009;28;20480;-64
2021/11/16 01:55:07;;;;;;;158.43;47.40;;;;;;;3.50;100.00;96209.00;1026327;28;20278;-63
2021/11/16 01:55:38;;;;;;;147.65;46.92;;;;;;;3.49;100.00;96204.81;1022645;28;20310;-63
2021/11/16 01:56:08;;;;;;;132.27;44.35;;;;;;;3.42;100.00;96196.25;1019342;29;20279;-63
2021/11/16 01:56:41;;;;;;;136.27;45.28;;;;;;;3.49;100.00;96209.22;1019415;29;20028;-62
2021/11/16 01:57:11;;;;;;;145.10;47.17;;;;;;;3.52;100.00;96212.19;1021487;28;20623;-64
2021/11/16 01:57:42;;;;;;;144.63;44.40;;;;;;;3.56;100.00;96217.75;1027067;28;20277;-61
2021/11/16 01:58:12;;;;;;;130.25;45.10;;;;;;;3.58;100.00;96210.53;1031399;28;20026;-62
2021/11/16 01:58:43;;;;;;;183.30;50.97;;;;;;;3.62;100.00;96208.31;1034882;28;20038;-61
2021/11/16 01:59:18;;;;;;;147.02;46.38;;;;;;;3.61;100.00;96210.13;1034956;28;20033;-63
2021/11/16 01:59:48;;;;;;;171.15;48.88;;;;;;;3.62;100.00;96211.75;1035441;28;20045;-64
2021/11/16 02:00:22;;;;;;;152.93;46.42;;;;;;;3.66;100.00;96212.13;1030897;28;20249;-60
2021/11/16 02:00:52;;;;;;;166.68;48.70;;;;;;;3.59;100.00;96209.56;1030186;28;20042;-63
2021/11/16 02:01:23;;;;;;;164.60;47.95;;;;;;;3.62;100.00;96206.56;1030829;28;20253;-62
2021/11/16 02:01:55;;;;;;;146.65;47.30;;;;;;;3.63;100.00;96207.34;1031167;28;20022;-62
2021/11/16 02:02:25;;;;;;;146.38;45.53;;;;;;;3.62;100.00;96208.31;1038742;28;20045;-63
2021/11/16 02:02:56;;;;;;;161.70;47.97;;;;;;;3.60;100.00;96208.56;1039305;28;20283;-64
2021/11/16 02:03:26;;;;;;;141.15;44.72;;;;;;;3.61;100.00;96202.34;1039086;28;20088;-63
2021/11/16 02:03:57;;;;;;;139.25;43.20;;;;;;;3.59;100.00;96209.56;1038462;28;20307;-61
2021/11/16 02:04:28;;;;;;;137.20;45.58;;;;;;;3.61;100.00;96209.34;1034713;28;20043;-64
2021/11/16 02:04:58;;;;;;;138.95;45.45;;;;;;;3.59;100.00;96211.34;1031090;28;20513;-64
2021/11/16 02:05:50;;;;;;;142.05;46.22;;;;;;;3.59;100.00;96211.34;1026569;28;20113;-63
2021/11/16 02:06:23;;;;;;;142.85;43.35;;;;;;;3.58;100.00;96205.34;1025753;28;20045;-63
2021/11/16 02:06:53;;;;;;;140.77;44.97;;;;;;;3.58;100.00;96209.75;1030042;28;20300;-63
2021/11/16 02:07:23;;;;;;;140.05;44.25;;;;;;;3.57;100.00;96213.34;1035396;28;20751;-63
2021/11/16 02:07:54;;;;;;;166.02;49.53;;;;;;;3.61;100.00;96204.94;1036797;28;20105;-64
2021/11/16 02:08:24;;;;;;;142.75;45.45;;;;;;;3.57;100.00;96200.38;1034705;28;20026;-63
2021/11/16 02:08:56;;;;;;;143.25;46.13;;;;;;;3.63;100.00;96208.13;1026795;28;20062;-62
2021/11/16 02:09:27;;;;;;;153.25;47.08;;;;;;;3.62;100.00;96205.72;1026651;28;20027;-63
2021/11/16 02:09:57;;;;;;;149.77;45.35;;;;;;;3.64;100.00;96207.13;1021388;29;20345;-62
2021/11/16 02:10:27;;;;;;;150.65;45.00;;;;;;;3.63;100.00;96207.34;1023052;28;20027;-63
2021/11/16 02:10:58;;;;;;;141.50;45.63;;;;;;;3.66;100.00;96204.34;1030116;28;20034;-63
2021/11/16 02:11:28;;;;;;;145.38;45.67;;;;;;;3.63;100.00;96202.16;1030883;28;20042;-63
2021/11/16 02:11:59;;;;;;;133.57;42.58;;;;;;;3.62;100.00;96198.78;1026048;28;20031;-62
2021/11/16 02:12:29;;;;;;;144.38;45.63;;;;;;;3.61;100.00;96189.38;1026410;28;20042;-63
2021/11/16 02:13:00;;;;;;;130.70;43.60;;;;;;;3.55;100.00;96174.63;1026656;28;20039;-64
2021/11/16 02:13:30;;;;;;;141.98;45.10;;;;;;;3.43;100.00;96156.34;1026943;28;20031;-63
2021/11/16 02:14:01;;;;;;;142.70;44.88;;;;;;;3.64;100.00;96185.56;1030064;28;20034;-63
2021/11/16 02:14:32;;;;;;;139.68;43.03;;;;;;;3.62;100.00;96179.78;1026660;28;20038;-63
2021/11/16 02:15:05;;;;;;;120.95;41.88;;;;;;;3.63;100.00;96181.41;1030986;28;20453;-62
2021/11/16 02:15:37;;;;;;;135.90;43.85;;;;;;;3.63;100.00;96181.41;1035612;28;20109;-63
2021/11/16 02:16:07;;;;;;;137.50;43.85;;;;;;;3.52;100.00;96170.69;1038475;28;20459;-62
2021/11/16 02:16:38;;;;;;;125.45;43.13;;;;;;;3.61;100.00;96179.00;1034521;28;20273;-63
2021/11/16 02:17:09;;;;;;;136.07;41.80;;;;;;;3.63;100.00;96179.59;1030871;28;20049;-63
2021/11/16 02:17:39;;;;;;;140.60;42.85;;;;;;;3.63;100.00;96173.63;1030351;28;20798;-63
2021/11/16 02:18:11;;;;;;;136.38;43.53;;;;;;;3.66;100.00;96175.81;1030799;28;20038;-64
2021/11/16 02:18:41;;;;;;;131.65;44.47;;;;;;;3.62;100.00;96177.19;1030621;28;20073;-61
2021/11/16 02:19:13;;;;;;;139.80;44.33;;;;;;;3.65;100.00;96180.16;1027110;28;21053;-63
2021/11/16 02:19:44;;;;;;;139.52;44.30;;;;;;;3.64;100.00;96173.41;1030927;28;20514;-63
2021/11/16 02:20:15;;;;;;;130.88;43.90;;;;;;;3.65;100.00;96174.19;1031037;28;20273;-64
2021/11/16 02:20:47;;;;;;;143.65;44.08;;;;;;;3.61;100.00;96178.22;1026277;28;20050;-62
2021/11/16 02:21:19;;;;;;;146.23;44.08;;;;;;;3.62;100.00;96174.59;1022465;29;20309;-64
2021/11/16 02:21:49;;;;;;;138.93;44.10;;;;;;;3.55;100.00;96169.44;1022553;29;20792;-60
2021/11/16 02:22:20;;;;;;;142.35;45.28;;;;;;;3.63;100.00;96178.81;1023138;28;20285;-62
2021/11/16 02:22:50;;;;;;;148.55;46.08;;;;;;;3.63;100.00;96181.41;1023684;28;20132;-64